createdAt,value
2018-07-27T00:00:11.461Z,1006.81
2018-07-27T00:01:11.455Z,1006.83
2018-07-27T00:02:11.451Z,1006.82
2018-07-27T00:03:11.444Z,1006.79
2018-07-27T00:04:11.436Z,1006.81
2018-07-27T00:05:11.429Z,1006.78
2018-07-27T00:06:11.422Z,1006.84
2018-07-27T00:07:11.422Z,1006.76
2018-07-27T00:08:11.412Z,1006.78
2018-07-27T00:09:11.409Z,1006.82
2018-07-27T00:10:11.403Z,1006.79
2018-07-27T00:11:11.391Z,1006.79
2018-07-27T00:12:11.384Z,1006.74
2018-07-27T00:13:11.391Z,1006.74
2018-07-27T00:14:11.576Z,1006.73
2018-07-27T00:15:11.368Z,1006.75
2018-07-27T00:16:11.360Z,1006.75
2018-07-27T00:17:11.355Z,1006.77
2018-07-27T00:18:11.349Z,1006.77
2018-07-27T00:19:11.342Z,1006.76
2018-07-27T00:20:11.335Z,1006.78
2018-07-27T00:21:11.328Z,1006.74
2018-07-27T00:22:11.324Z,1006.81
2018-07-27T00:23:11.324Z,1006.76
2018-07-27T00:24:11.310Z,1006.73
2018-07-27T00:25:11.303Z,1006.78
2018-07-27T00:26:11.303Z,1006.74
2018-07-27T00:27:11.291Z,1006.75
2018-07-27T00:28:11.285Z,1006.74
2018-07-27T00:29:11.280Z,1006.72
2018-07-27T00:30:11.272Z,1006.71
2018-07-27T00:31:11.265Z,1006.7
2018-07-27T00:32:11.257Z,1006.7
2018-07-27T00:33:11.253Z,1006.67
2018-07-27T00:34:11.245Z,1006.71
2018-07-27T00:35:11.244Z,1006.73
2018-07-27T00:36:11.232Z,1006.7
2018-07-27T00:37:11.225Z,1006.69
2018-07-27T00:38:11.219Z,1006.73
2018-07-27T00:39:11.213Z,1006.73
2018-07-27T00:40:11.210Z,1006.72
2018-07-27T00:41:11.200Z,1006.73
2018-07-27T00:42:11.195Z,1006.76
2018-07-27T00:43:11.190Z,1006.78
2018-07-27T00:44:11.181Z,1006.77
2018-07-27T00:45:11.174Z,1006.75
2018-07-27T00:46:11.166Z,1006.74
2018-07-27T00:47:11.159Z,1006.74
2018-07-27T00:48:11.154Z,1006.73
2018-07-27T00:49:11.147Z,1006.73
2018-07-27T00:50:11.141Z,1006.76
2018-07-27T00:51:11.135Z,1006.72
2018-07-27T00:52:11.130Z,1006.73
2018-07-27T00:53:11.125Z,1006.7
2018-07-27T00:54:11.114Z,1006.72
2018-07-27T00:55:11.107Z,1006.69
2018-07-27T00:56:11.104Z,1006.69
2018-07-27T00:57:11.096Z,1006.65
2018-07-27T00:58:11.088Z,1006.68
2018-07-27T00:59:11.082Z,1006.66
2018-07-27T01:00:11.072Z,1006.64
2018-07-27T01:01:11.067Z,1006.61
2018-07-27T01:02:11.060Z,1006.62
2018-07-27T01:03:11.056Z,1006.6
2018-07-27T01:04:11.054Z,1006.6
2018-07-27T01:05:11.044Z,1006.63
2018-07-27T01:06:11.036Z,1006.61
2018-07-27T01:07:11.029Z,1006.59
2018-07-27T01:08:11.021Z,1006.59
2018-07-27T01:09:11.015Z,1006.58
2018-07-27T01:10:11.009Z,1006.58
2018-07-27T01:11:11.001Z,1006.52
2018-07-27T01:12:10.995Z,1006.51
2018-07-27T01:13:10.989Z,1006.5
2018-07-27T01:14:10.986Z,1006.54
2018-07-27T01:15:10.980Z,1006.52
2018-07-27T01:16:10.968Z,1006.54
2018-07-27T01:17:10.963Z,1006.54
2018-07-27T01:18:10.953Z,1006.52
2018-07-27T01:19:10.951Z,1006.55
2018-07-27T01:20:10.943Z,1006.55
2018-07-27T01:21:10.934Z,1006.55
2018-07-27T01:22:10.937Z,1006.53
2018-07-27T01:23:10.919Z,1006.57
2018-07-27T01:24:10.913Z,1006.49
2018-07-27T01:25:10.908Z,1006.52
2018-07-27T01:26:10.898Z,1006.51
2018-07-27T01:27:10.893Z,1006.48
2018-07-27T01:28:10.884Z,1006.5
2018-07-27T01:29:10.877Z,1006.45
2018-07-27T01:30:10.877Z,1006.46
2018-07-27T01:31:10.864Z,1006.46
2018-07-27T01:32:10.859Z,1006.44
2018-07-27T01:33:10.851Z,1006.47
2018-07-27T01:34:10.845Z,1006.47
2018-07-27T01:35:10.837Z,1006.44
2018-07-27T01:36:10.833Z,1006.44
2018-07-27T01:37:10.824Z,1006.43
2018-07-27T01:38:10.820Z,1006.42
2018-07-27T01:39:10.810Z,1006.4
2018-07-27T01:40:10.803Z,1006.37
2018-07-27T01:41:10.795Z,1006.38
2018-07-27T01:42:10.801Z,1006.37
2018-07-27T01:43:10.782Z,1006.37
2018-07-27T01:44:10.778Z,1006.36
2018-07-27T01:45:10.769Z,1006.38
2018-07-27T01:46:10.761Z,1006.37
2018-07-27T01:47:10.753Z,1006.38
2018-07-27T01:48:10.750Z,1006.36
2018-07-27T01:49:10.739Z,1006.36
2018-07-27T01:50:10.732Z,1006.36
2018-07-27T01:51:10.727Z,1006.34
2018-07-27T01:52:10.717Z,1006.34
2018-07-27T01:53:10.713Z,1006.37
2018-07-27T01:54:10.711Z,1006.38
2018-07-27T01:55:10.697Z,1006.35
2018-07-27T01:56:10.689Z,1006.36
2018-07-27T01:57:10.683Z,1006.33
2018-07-27T01:58:10.675Z,1006.32
2018-07-27T01:59:10.668Z,1006.3
2018-07-27T02:00:10.662Z,1006.33
2018-07-27T02:01:10.657Z,1006.33
2018-07-27T02:02:10.650Z,1006.35
2018-07-27T02:03:10.642Z,1006.34
2018-07-27T02:04:10.633Z,1006.3
2018-07-27T02:05:10.627Z,1006.32
2018-07-27T02:06:10.621Z,1006.29
2018-07-27T02:07:10.614Z,1006.28
2018-07-27T02:08:10.609Z,1006.28
2018-07-27T02:09:10.597Z,1006.3
2018-07-27T02:10:10.592Z,1006.28
2018-07-27T02:11:10.587Z,1006.3
2018-07-27T02:12:10.580Z,1006.32
2018-07-27T02:13:10.569Z,1006.32
2018-07-27T02:14:10.763Z,1006.33
2018-07-27T02:15:10.559Z,1006.26
2018-07-27T02:16:10.546Z,1006.26
2018-07-27T02:17:10.542Z,1006.26
2018-07-27T02:18:10.533Z,1006.22
2018-07-27T02:19:10.526Z,1006.26
2018-07-27T02:20:10.519Z,1006.22
2018-07-27T02:21:10.512Z,1006.21
2018-07-27T02:22:10.504Z,1006.23
2018-07-27T02:23:10.497Z,1006.18
2018-07-27T02:24:10.492Z,1006.15
2018-07-27T02:25:10.482Z,1006.14
2018-07-27T02:26:10.478Z,1006.16
2018-07-27T02:27:10.468Z,1006.13
2018-07-27T02:28:10.463Z,1006.15
2018-07-27T02:29:10.462Z,1006.11
2018-07-27T02:30:10.445Z,1006.1
2018-07-27T02:31:10.438Z,1006.12
2018-07-27T02:32:10.429Z,1006.16
2018-07-27T02:33:10.424Z,1006.12
2018-07-27T02:34:10.415Z,1006.14
2018-07-27T02:35:10.410Z,1006.17
2018-07-27T02:36:10.400Z,1006.13
2018-07-27T02:37:10.401Z,1006.13
2018-07-27T02:38:10.388Z,1006.16
2018-07-27T02:39:10.395Z,1006.14
2018-07-27T02:40:10.440Z,1006.14
2018-07-27T02:41:10.368Z,1006.13
2018-07-27T02:42:10.356Z,1006.11
2018-07-27T02:43:10.351Z,1006.12
2018-07-27T02:44:10.341Z,1006.12
2018-07-27T02:45:10.342Z,1006.13
2018-07-27T02:46:10.325Z,1006.08
2018-07-27T02:47:10.321Z,1006.1
2018-07-27T02:48:10.312Z,1006.08
2018-07-27T02:49:10.305Z,1006.07
2018-07-27T02:50:10.296Z,1006.07
2018-07-27T02:51:10.338Z,1006.06
2018-07-27T02:52:10.282Z,1006.07
2018-07-27T02:53:10.272Z,1006.05
2018-07-27T02:54:10.268Z,1006.09
2018-07-27T02:55:10.257Z,1006.04
2018-07-27T02:56:10.252Z,1006.04
2018-07-27T02:57:10.241Z,1006.05
2018-07-27T02:58:10.238Z,1006.06
2018-07-27T02:59:10.227Z,1006.07
2018-07-27T03:00:10.225Z,1006.02
2018-07-27T03:01:10.214Z,1006.03
2018-07-27T03:02:10.204Z,1006
2018-07-27T03:03:10.196Z,1006.02
2018-07-27T03:04:10.188Z,1006
2018-07-27T03:05:10.181Z,1006.01
2018-07-27T03:06:10.172Z,1006.01
2018-07-27T03:07:10.167Z,1005.99
2018-07-27T03:08:10.155Z,1005.99
2018-07-27T03:09:10.154Z,1006.02
2018-07-27T03:10:10.145Z,1006.01
2018-07-27T03:11:10.132Z,1005.96
2018-07-27T03:12:10.124Z,1006.01
2018-07-27T03:13:10.117Z,1006.01
2018-07-27T03:14:10.109Z,1006.04
2018-07-27T03:15:10.099Z,1006.04
2018-07-27T03:16:10.092Z,1006.03
2018-07-27T03:17:10.085Z,1006.01
2018-07-27T03:18:10.079Z,1006
2018-07-27T03:19:10.066Z,1006
2018-07-27T03:20:10.066Z,1006.04
2018-07-27T03:21:10.052Z,1005.98
2018-07-27T03:22:10.043Z,1006.01
2018-07-27T03:23:10.036Z,1005.99
2018-07-27T03:24:10.029Z,1005.99
2018-07-27T03:25:10.020Z,1005.97
2018-07-27T03:26:10.011Z,1005.91
2018-07-27T03:27:10.004Z,1005.96
2018-07-27T03:28:09.996Z,1005.95
2018-07-27T03:29:09.987Z,1005.94
2018-07-27T03:30:09.980Z,1005.93
2018-07-27T03:31:09.971Z,1005.92
2018-07-27T03:32:09.963Z,1005.95
2018-07-27T03:33:09.955Z,1005.98
2018-07-27T03:34:09.950Z,1005.94
2018-07-27T03:35:09.943Z,1005.95
2018-07-27T03:36:09.930Z,1005.95
2018-07-27T03:37:09.919Z,1005.97
2018-07-27T03:38:09.935Z,1005.94
2018-07-27T03:39:09.907Z,1005.95
2018-07-27T03:40:09.897Z,1005.94
2018-07-27T03:41:09.889Z,1006
2018-07-27T03:42:09.952Z,1005.99
2018-07-27T03:43:09.873Z,1005.98
2018-07-27T03:44:09.867Z,1006.01
2018-07-27T03:45:09.853Z,1005.97
2018-07-27T03:46:09.848Z,1005.97
2018-07-27T03:47:09.839Z,1006
2018-07-27T03:48:09.828Z,1006.02
2018-07-27T03:49:09.819Z,1005.99
2018-07-27T03:50:09.811Z,1005.99
2018-07-27T03:51:09.805Z,1005.98
2018-07-27T03:52:09.796Z,1005.99
2018-07-27T03:53:09.786Z,1006.01
2018-07-27T03:54:09.779Z,1005.98
2018-07-27T03:55:09.770Z,1005.98
2018-07-27T03:56:09.764Z,1005.97
2018-07-27T03:57:09.798Z,1005.98
2018-07-27T03:58:09.745Z,1005.94
2018-07-27T03:59:09.735Z,1005.96
2018-07-27T04:00:09.726Z,1005.91
2018-07-27T04:01:09.721Z,1005.99
2018-07-27T04:02:09.714Z,1005.95
2018-07-27T04:03:09.702Z,1005.96
2018-07-27T04:04:09.704Z,1005.96
2018-07-27T04:05:09.685Z,1005.95
2018-07-27T04:06:09.678Z,1005.97
2018-07-27T04:07:09.667Z,1005.97
2018-07-27T04:08:09.663Z,1006
2018-07-27T04:09:09.650Z,1005.96
2018-07-27T04:10:09.645Z,1005.93
2018-07-27T04:11:09.634Z,1005.94
2018-07-27T04:12:09.626Z,1005.97
2018-07-27T04:13:09.617Z,1005.99
2018-07-27T04:14:09.812Z,1005.97
2018-07-27T04:15:09.601Z,1005.96
2018-07-27T04:16:09.591Z,1005.96
2018-07-27T04:17:09.583Z,1005.98
2018-07-27T04:18:09.579Z,1005.99
2018-07-27T04:19:09.565Z,1005.97
2018-07-27T04:20:09.558Z,1005.98
2018-07-27T04:21:09.549Z,1005.97
2018-07-27T04:22:09.542Z,1005.96
2018-07-27T04:23:09.530Z,1005.96
2018-07-27T04:24:09.523Z,1005.97
2018-07-27T04:25:09.515Z,1006
2018-07-27T04:26:09.519Z,1005.97
2018-07-27T04:27:09.496Z,1006.04
2018-07-27T04:28:09.488Z,1005.99
2018-07-27T04:29:09.480Z,1006.03
2018-07-27T04:30:09.474Z,1005.99
2018-07-27T04:31:09.461Z,1006.01
2018-07-27T04:32:09.452Z,1006.03
2018-07-27T04:33:09.450Z,1006
2018-07-27T04:34:09.437Z,1006.03
2018-07-27T04:35:09.427Z,1006.05
2018-07-27T04:36:09.419Z,1006.06
2018-07-27T04:37:09.412Z,1006.06
2018-07-27T04:38:09.400Z,1006.02
2018-07-27T04:39:09.393Z,1006.07
2018-07-27T04:40:09.385Z,1006.08
2018-07-27T04:41:09.381Z,1006.09
2018-07-27T04:42:09.372Z,1006.09
2018-07-27T04:43:09.363Z,1006.12
2018-07-27T04:44:09.352Z,1006.08
2018-07-27T04:45:09.346Z,1006.05
2018-07-27T04:46:09.368Z,1006.04
2018-07-27T04:47:09.325Z,1006.04
2018-07-27T04:48:09.317Z,1006.02
2018-07-27T04:49:09.309Z,1006.08
2018-07-27T04:50:09.299Z,1006.05
2018-07-27T04:51:09.289Z,1006.05
2018-07-27T04:52:09.284Z,1006.02
2018-07-27T04:53:09.276Z,1006.04
2018-07-27T04:54:09.267Z,1006.06
2018-07-27T04:55:09.255Z,1006.07
2018-07-27T04:56:09.282Z,1006.07
2018-07-27T04:57:09.240Z,1006.09
2018-07-27T04:58:09.237Z,1006.11
2018-07-27T04:59:09.223Z,1006.14
2018-07-27T05:00:09.216Z,1006.12
2018-07-27T05:01:09.206Z,1006.14
2018-07-27T05:02:09.204Z,1006.12
2018-07-27T05:03:09.192Z,1006.12
2018-07-27T05:04:09.184Z,1006.16
2018-07-27T05:05:09.178Z,1006.18
2018-07-27T05:06:09.166Z,1006.18
2018-07-27T05:07:09.159Z,1006.2
2018-07-27T05:08:09.148Z,1006.19
2018-07-27T05:09:09.141Z,1006.19
2018-07-27T05:10:09.133Z,1006.18
2018-07-27T05:11:09.125Z,1006.24
2018-07-27T05:12:09.117Z,1006.21
2018-07-27T05:13:09.109Z,1006.19
2018-07-27T05:14:09.101Z,1006.22
2018-07-27T05:15:09.092Z,1006.23
2018-07-27T05:16:09.086Z,1006.23
2018-07-27T05:17:09.076Z,1006.21
2018-07-27T05:18:09.090Z,1006.21
2018-07-27T05:19:09.060Z,1006.18
2018-07-27T05:20:09.053Z,1006.19
2018-07-27T05:21:09.043Z,1006.19
2018-07-27T05:22:09.037Z,1006.17
2018-07-27T05:23:09.027Z,1006.15
2018-07-27T05:24:09.018Z,1006.14
2018-07-27T05:25:09.015Z,1006.18
2018-07-27T05:26:09.004Z,1006.13
2018-07-27T05:27:08.996Z,1006.14
2018-07-27T05:28:08.986Z,1006.13
2018-07-27T05:29:08.982Z,1006.13
2018-07-27T05:30:08.971Z,1006.11
2018-07-27T05:31:08.963Z,1006.15
2018-07-27T05:32:08.957Z,1006.15
2018-07-27T05:33:08.948Z,1006.17
2018-07-27T05:34:08.942Z,1006.16
2018-07-27T05:35:08.933Z,1006.15
2018-07-27T05:36:08.926Z,1006.14
2018-07-27T05:37:08.920Z,1006.12
2018-07-27T05:38:08.909Z,1006.13
2018-07-27T05:39:08.901Z,1006.18
2018-07-27T05:40:08.893Z,1006.12
2018-07-27T05:41:08.885Z,1006.18
2018-07-27T05:42:08.880Z,1006.16
2018-07-27T05:43:08.871Z,1006.17
2018-07-27T05:44:08.868Z,1006.2
2018-07-27T05:45:08.855Z,1006.22
2018-07-27T05:46:08.850Z,1006.22
2018-07-27T05:47:08.887Z,1006.25
2018-07-27T05:48:08.837Z,1006.23
2018-07-27T05:49:08.825Z,1006.25
2018-07-27T05:50:08.822Z,1006.27
2018-07-27T05:51:08.811Z,1006.27
2018-07-27T05:52:08.807Z,1006.31
2018-07-27T05:53:08.848Z,1006.29
2018-07-27T05:54:08.793Z,1006.31
2018-07-27T05:55:08.787Z,1006.28
2018-07-27T05:56:08.775Z,1006.27
2018-07-27T05:57:08.769Z,1006.29
2018-07-27T05:58:08.760Z,1006.31
2018-07-27T05:59:08.754Z,1006.29
2018-07-27T06:00:08.746Z,1006.29
2018-07-27T06:01:08.766Z,1006.29
2018-07-27T06:02:10.437Z,1006.31
2018-07-27T06:03:08.724Z,1006.29
2018-07-27T06:04:08.723Z,1006.3
2018-07-27T06:05:08.711Z,1006.3
2018-07-27T06:06:08.703Z,1006.3
2018-07-27T06:07:08.695Z,1006.3
2018-07-27T06:08:08.690Z,1006.28
2018-07-27T06:09:08.686Z,1006.36
2018-07-27T06:10:08.676Z,1006.36
2018-07-27T06:11:08.700Z,1006.31
2018-07-27T06:12:08.661Z,1006.3
2018-07-27T06:13:08.656Z,1006.29
2018-07-27T06:14:08.848Z,1006.28
2018-07-27T06:15:08.640Z,1006.24
2018-07-27T06:16:08.635Z,1006.27
2018-07-27T06:17:08.632Z,1006.26
2018-07-27T06:18:08.730Z,1006.25
2018-07-27T06:19:08.615Z,1006.26
2018-07-27T06:20:08.611Z,1006.24
2018-07-27T06:21:08.602Z,1006.26
2018-07-27T06:22:08.593Z,1006.27
2018-07-27T06:23:08.589Z,1006.26
2018-07-27T06:24:08.621Z,1006.26
2018-07-27T06:25:08.573Z,1006.27
2018-07-27T06:26:08.567Z,1006.24
2018-07-27T06:27:08.564Z,1006.23
2018-07-27T06:28:08.635Z,1006.26
2018-07-27T06:29:08.573Z,1006.23
2018-07-27T06:30:08.543Z,1006.22
2018-07-27T06:31:08.543Z,1006.28
2018-07-27T06:32:08.526Z,1006.25
2018-07-27T06:33:08.520Z,1006.26
2018-07-27T06:34:08.516Z,1006.22
2018-07-27T06:35:08.510Z,1006.27
2018-07-27T06:36:08.502Z,1006.27
2018-07-27T06:37:08.496Z,1006.26
2018-07-27T06:38:08.490Z,1006.25
2018-07-27T06:39:08.541Z,1006.26
2018-07-27T06:40:08.477Z,1006.25
2018-07-27T06:41:08.471Z,1006.23
2018-07-27T06:42:08.464Z,1006.25
2018-07-27T06:43:08.457Z,1006.24
2018-07-27T06:44:08.456Z,1006.28
2018-07-27T06:45:08.473Z,1006.26
2018-07-27T06:46:08.439Z,1006.29
2018-07-27T06:47:08.431Z,1006.24
2018-07-27T06:48:08.427Z,1006.32
2018-07-27T06:49:08.420Z,1006.28
2018-07-27T06:50:08.413Z,1006.28
2018-07-27T06:51:08.413Z,1006.27
2018-07-27T06:52:08.401Z,1006.29
2018-07-27T06:53:08.396Z,1006.27
2018-07-27T06:54:08.388Z,1006.26
2018-07-27T06:55:08.382Z,1006.29
2018-07-27T06:56:08.384Z,1006.26
2018-07-27T06:57:08.373Z,1006.27
2018-07-27T06:58:08.364Z,1006.24
2018-07-27T06:59:08.357Z,1006.26
2018-07-27T07:00:08.355Z,1006.25
2018-07-27T07:01:08.345Z,1006.29
2018-07-27T07:02:08.340Z,1006.29
2018-07-27T07:03:08.335Z,1006.28
2018-07-27T07:04:08.330Z,1006.28
2018-07-27T07:05:08.327Z,1006.32
2018-07-27T07:06:08.316Z,1006.25
2018-07-27T07:07:08.313Z,1006.31
2018-07-27T07:08:08.306Z,1006.28
2018-07-27T07:09:08.317Z,1006.26
2018-07-27T07:10:08.294Z,1006.3
2018-07-27T07:11:08.287Z,1006.28
2018-07-27T07:12:08.281Z,1006.29
2018-07-27T07:13:08.275Z,1006.26
2018-07-27T07:14:08.269Z,1006.24
2018-07-27T07:15:08.265Z,1006.28
2018-07-27T07:16:08.258Z,1006.28
2018-07-27T07:17:08.257Z,1006.27
2018-07-27T07:18:08.254Z,1006.25
2018-07-27T07:19:08.244Z,1006.29
2018-07-27T07:20:08.237Z,1006.28
2018-07-27T07:21:08.232Z,1006.3
2018-07-27T07:22:08.224Z,1006.31
2018-07-27T07:23:08.220Z,1006.29
2018-07-27T07:24:08.212Z,1006.32
2018-07-27T07:25:08.344Z,1006.31
2018-07-27T07:26:08.503Z,1006.32
2018-07-27T07:27:08.198Z,1006.3
2018-07-27T07:28:08.193Z,1006.32
2018-07-27T07:29:08.190Z,1006.34
2018-07-27T07:30:08.180Z,1006.33
2018-07-27T07:31:08.177Z,1006.31
2018-07-27T07:32:08.175Z,1006.31
2018-07-27T07:33:08.189Z,1006.3
2018-07-27T07:34:08.164Z,1006.36
2018-07-27T07:35:08.152Z,1006.52
2018-07-27T07:36:08.148Z,1006.64
2018-07-27T07:37:08.168Z,1006.65
2018-07-27T07:38:08.138Z,1006.69
2018-07-27T07:39:08.149Z,1006.64
2018-07-27T07:40:08.130Z,1006.63
2018-07-27T07:41:08.126Z,1006.61
2018-07-27T07:42:08.120Z,1006.6
2018-07-27T07:43:08.116Z,1006.61
2018-07-27T07:44:08.120Z,1006.62
2018-07-27T07:45:08.160Z,1006.64
2018-07-27T07:46:08.108Z,1006.66
2018-07-27T07:47:08.110Z,1006.64
2018-07-27T07:48:08.104Z,1006.61
2018-07-27T07:49:08.101Z,1006.59
2018-07-27T07:50:08.101Z,1006.63
2018-07-27T07:51:08.101Z,1006.64
2018-07-27T07:52:08.100Z,1006.59
2018-07-27T07:53:08.101Z,1006.63
2018-07-27T07:54:08.099Z,1006.64
2018-07-27T07:55:08.099Z,1006.63
2018-07-27T07:56:08.099Z,1006.64
2018-07-27T07:57:08.100Z,1006.64
2018-07-27T07:58:08.104Z,1006.64
2018-07-27T07:59:08.102Z,1006.6
2018-07-27T08:00:08.105Z,1006.65
2018-07-27T08:01:08.104Z,1006.6
2018-07-27T08:02:08.108Z,1006.64
2018-07-27T08:03:08.110Z,1006.59
2018-07-27T08:04:08.110Z,1006.62
2018-07-27T08:05:08.113Z,1006.63
2018-07-27T08:06:08.116Z,1006.61
2018-07-27T08:07:08.114Z,1006.61
2018-07-27T08:08:08.117Z,1006.62
2018-07-27T08:09:08.123Z,1006.59
2018-07-27T08:10:08.131Z,1006.58
2018-07-27T08:11:08.165Z,1006.58
2018-07-27T08:12:08.129Z,1006.6
2018-07-27T08:13:08.143Z,1006.63
2018-07-27T08:14:08.401Z,1006.57
2018-07-27T08:15:08.143Z,1006.55
2018-07-27T08:16:08.144Z,1006.59
2018-07-27T08:17:08.148Z,1006.63
2018-07-27T08:18:08.154Z,1006.67
2018-07-27T08:19:08.158Z,1006.65
2018-07-27T08:20:08.163Z,1006.62
2018-07-27T08:21:08.164Z,1006.64
2018-07-27T08:22:08.168Z,1006.61
2018-07-27T08:23:08.175Z,1006.65
2018-07-27T08:24:08.184Z,1006.57
2018-07-27T08:25:08.184Z,1006.49
2018-07-27T08:26:08.192Z,1006.38
2018-07-27T08:27:08.192Z,1006.42
2018-07-27T08:28:08.198Z,1006.39
2018-07-27T08:29:08.204Z,1006.49
2018-07-27T08:30:08.208Z,1006.46
2018-07-27T08:31:08.212Z,1006.39
2018-07-27T08:32:08.217Z,1006.56
2018-07-27T08:33:08.223Z,1006.47
2018-07-27T08:34:08.227Z,1006.54
2018-07-27T08:35:08.232Z,1006.47
2018-07-27T08:36:08.239Z,1006.48
2018-07-27T08:37:08.240Z,1006.49
2018-07-27T08:38:08.245Z,1006.52
2018-07-27T08:39:08.251Z,1006.5
2018-07-27T08:40:08.259Z,1006.4
2018-07-27T08:41:08.262Z,1006.22
2018-07-27T08:42:08.267Z,1006.13
2018-07-27T08:43:08.273Z,1006.17
2018-07-27T08:44:08.278Z,1006.1
2018-07-27T08:45:08.281Z,1006.03
2018-07-27T08:46:08.285Z,1006.02
2018-07-27T08:47:08.348Z,1005.97
2018-07-27T08:48:08.294Z,1006.04
2018-07-27T08:49:08.297Z,1005.95
2018-07-27T08:50:08.302Z,1006.01
2018-07-27T08:51:08.305Z,1005.97
2018-07-27T08:52:08.310Z,1005.93
2018-07-27T08:53:08.314Z,1005.92
2018-07-27T08:54:08.316Z,1005.89
2018-07-27T08:55:08.328Z,1005.89
2018-07-27T08:56:08.321Z,1005.94
2018-07-27T08:57:08.324Z,1005.87
2018-07-27T08:58:08.326Z,1005.89
2018-07-27T08:59:08.330Z,1005.91
2018-07-27T09:00:08.333Z,1005.92
2018-07-27T09:01:08.335Z,1005.97
2018-07-27T09:02:08.332Z,1005.94
2018-07-27T09:03:08.337Z,1006
2018-07-27T09:04:08.335Z,1005.97
2018-07-27T09:05:08.338Z,1005.89
2018-07-27T09:06:08.340Z,1005.99
2018-07-27T09:07:08.338Z,1005.91
2018-07-27T09:08:08.338Z,1005.94
2018-07-27T09:09:08.341Z,1005.82
2018-07-27T09:10:08.351Z,1005.82
2018-07-27T09:11:08.340Z,1005.85
2018-07-27T09:12:08.342Z,1005.93
2018-07-27T09:13:08.342Z,1005.96
2018-07-27T09:14:08.342Z,1005.94
2018-07-27T09:15:08.346Z,1005.89
2018-07-27T09:16:08.344Z,1005.82
2018-07-27T09:17:08.342Z,1005.79
2018-07-27T09:18:08.345Z,1005.76
2018-07-27T09:19:08.376Z,1005.8
2018-07-27T09:20:08.341Z,1005.8
2018-07-27T09:21:08.341Z,1005.85
2018-07-27T09:22:08.342Z,1005.88
2018-07-27T09:23:08.343Z,1005.91
2018-07-27T09:24:08.431Z,1005.96
2018-07-27T09:25:08.644Z,1005.92
2018-07-27T09:26:08.341Z,1005.82
2018-07-27T09:27:08.345Z,1005.8
2018-07-27T09:28:08.342Z,1005.87
2018-07-27T09:29:08.341Z,1005.75
2018-07-27T09:30:08.341Z,1005.84
2018-07-27T09:31:08.342Z,1005.74
2018-07-27T09:32:08.340Z,1005.66
2018-07-27T09:33:08.341Z,1005.74
2018-07-27T09:34:08.363Z,1005.65
2018-07-27T09:35:08.368Z,1005.65
2018-07-27T09:36:08.344Z,1005.62
2018-07-27T09:37:08.340Z,1005.6
2018-07-27T09:38:08.339Z,1005.61
2018-07-27T09:39:08.339Z,1005.57
2018-07-27T09:40:08.337Z,1005.53
2018-07-27T09:41:08.339Z,1005.61
2018-07-27T09:42:08.334Z,1005.56
2018-07-27T09:43:08.337Z,1005.55
2018-07-27T09:44:08.337Z,1005.51
2018-07-27T09:45:08.332Z,1005.53
2018-07-27T09:46:08.331Z,1005.5
2018-07-27T09:47:08.330Z,1005.48
2018-07-27T09:48:08.333Z,1005.43
2018-07-27T09:49:08.329Z,1005.44
2018-07-27T09:50:08.327Z,1005.47
2018-07-27T09:51:08.328Z,1005.39
2018-07-27T09:52:08.325Z,1005.51
2018-07-27T09:53:08.326Z,1005.38
2018-07-27T09:54:08.323Z,1005.43
2018-07-27T09:55:08.324Z,1005.43
2018-07-27T09:56:08.320Z,1005.4
2018-07-27T09:57:08.317Z,1005.45
2018-07-27T09:58:08.318Z,1005.54
2018-07-27T09:59:08.315Z,1005.47
2018-07-27T10:00:08.313Z,1005.48
2018-07-27T10:01:08.320Z,1005.49
2018-07-27T10:02:08.309Z,1005.49
2018-07-27T10:03:08.309Z,1005.48
2018-07-27T10:04:08.307Z,1005.43
2018-07-27T10:05:08.308Z,1005.4
2018-07-27T10:06:08.307Z,1005.36
2018-07-27T10:07:08.301Z,1005.43
2018-07-27T10:08:08.303Z,1005.41
2018-07-27T10:09:08.299Z,1005.41
2018-07-27T10:10:08.303Z,1005.32
2018-07-27T10:11:08.298Z,1005.34
2018-07-27T10:12:08.297Z,1005.28
2018-07-27T10:13:08.294Z,1005.34
2018-07-27T10:14:08.295Z,1005.32
2018-07-27T10:15:08.289Z,1005.32
2018-07-27T10:16:08.287Z,1005.29
2018-07-27T10:17:08.286Z,1005.32
2018-07-27T10:18:08.285Z,1005.23
2018-07-27T10:19:08.284Z,1005.27
2018-07-27T10:20:08.281Z,1005.29
2018-07-27T10:21:08.279Z,1005.33
2018-07-27T10:22:08.276Z,1005.28
2018-07-27T10:23:08.278Z,1005.24
2018-07-27T10:24:08.319Z,1005.31
2018-07-27T10:25:08.275Z,1005.42
2018-07-27T10:26:08.275Z,1005.34
2018-07-27T10:27:08.273Z,1005.32
2018-07-27T10:28:08.271Z,1005.21
2018-07-27T10:29:08.268Z,1005.26
2018-07-27T10:30:08.267Z,1005.28
2018-07-27T10:31:08.263Z,1005.35
2018-07-27T10:32:08.260Z,1005.35
2018-07-27T10:33:08.265Z,1005.42
2018-07-27T10:34:08.259Z,1005.5
2018-07-27T10:35:08.262Z,1005.52
2018-07-27T10:36:08.259Z,1005.54
2018-07-27T10:37:08.259Z,1005.51
2018-07-27T10:38:08.260Z,1005.37
2018-07-27T10:39:08.261Z,1005.58
2018-07-27T10:40:08.262Z,1005.52
2018-07-27T10:41:08.263Z,1005.47
2018-07-27T10:42:08.266Z,1005.46
2018-07-27T10:43:08.270Z,1005.51
2018-07-27T10:44:08.271Z,1005.52
2018-07-27T10:45:08.277Z,1005.47
2018-07-27T10:46:08.283Z,1005.42
2018-07-27T10:47:08.282Z,1005.42
2018-07-27T10:48:08.287Z,1005.44
2018-07-27T10:49:08.293Z,1005.42
2018-07-27T10:50:08.350Z,1005.44
2018-07-27T10:51:08.302Z,1005.35
2018-07-27T10:52:08.307Z,1005.26
2018-07-27T10:53:08.326Z,1005.28
2018-07-27T10:54:08.320Z,1005.26
2018-07-27T10:55:08.332Z,1005.24
2018-07-27T10:56:08.332Z,1005.18
2018-07-27T10:57:08.338Z,1005.2
2018-07-27T10:58:08.346Z,1005.17
2018-07-27T10:59:08.353Z,1005.15
2018-07-27T11:00:08.359Z,1005.11
2018-07-27T11:01:08.366Z,1005.1
2018-07-27T11:02:08.374Z,1005.08
2018-07-27T11:03:08.381Z,1005.05
2018-07-27T11:04:08.390Z,1005.08
2018-07-27T11:05:08.399Z,1004.99
2018-07-27T11:06:08.407Z,1005.03
2018-07-27T11:07:08.412Z,1005.04
2018-07-27T11:08:08.421Z,1005.01
2018-07-27T11:09:08.429Z,1005.03
2018-07-27T11:10:08.438Z,1005.03
2018-07-27T11:11:08.446Z,1005.04
2018-07-27T11:12:08.453Z,1004.99
2018-07-27T11:13:08.462Z,1004.94
2018-07-27T11:14:08.474Z,1004.98
2018-07-27T11:15:08.483Z,1004.94
2018-07-27T11:16:08.491Z,1004.94
2018-07-27T11:17:08.498Z,1004.92
2018-07-27T11:18:08.507Z,1004.9
2018-07-27T11:19:08.515Z,1004.91
2018-07-27T11:20:08.525Z,1004.87
2018-07-27T11:21:08.534Z,1004.9
2018-07-27T11:22:08.545Z,1004.87
2018-07-27T11:23:08.556Z,1004.81
2018-07-27T11:24:08.566Z,1004.83
2018-07-27T11:25:08.573Z,1004.8
2018-07-27T11:26:08.585Z,1004.81
2018-07-27T11:27:08.593Z,1004.81
2018-07-27T11:28:08.603Z,1004.76
2018-07-27T11:29:08.613Z,1004.75
2018-07-27T11:30:08.625Z,1004.77
2018-07-27T11:31:08.721Z,1004.71
2018-07-27T11:32:08.648Z,1004.7
2018-07-27T11:33:08.652Z,1004.67
2018-07-27T11:34:08.664Z,1004.64
2018-07-27T11:35:08.675Z,1004.65
2018-07-27T11:36:08.688Z,1004.64
2018-07-27T11:37:08.747Z,1004.63
2018-07-27T11:38:08.707Z,1004.62
2018-07-27T11:39:08.714Z,1004.56
2018-07-27T11:40:08.729Z,1004.58
2018-07-27T11:41:08.735Z,1004.56
2018-07-27T11:42:08.750Z,1004.47
2018-07-27T11:43:08.758Z,1004.48
2018-07-27T11:44:08.769Z,1004.5
2018-07-27T11:45:08.782Z,1004.46
2018-07-27T11:46:08.792Z,1004.47
2018-07-27T11:47:08.798Z,1004.51
2018-07-27T11:48:08.810Z,1004.52
2018-07-27T11:49:08.822Z,1004.45
2018-07-27T11:50:08.836Z,1004.44
2018-07-27T11:51:08.842Z,1004.46
2018-07-27T11:52:08.857Z,1004.45
2018-07-27T11:53:08.863Z,1004.51
2018-07-27T11:54:08.874Z,1004.46
2018-07-27T11:55:08.885Z,1004.44
2018-07-27T11:56:08.896Z,1004.46
2018-07-27T11:57:08.911Z,1004.47
2018-07-27T11:58:08.916Z,1004.47
2018-07-27T11:59:08.934Z,1004.44
2018-07-27T12:00:08.939Z,1004.39
2018-07-27T12:01:08.949Z,1004.36
2018-07-27T12:02:08.964Z,1004.36
2018-07-27T12:03:08.972Z,1004.37
2018-07-27T12:04:08.984Z,1004.34
2018-07-27T12:05:08.995Z,1004.3
2018-07-27T12:06:09.003Z,1004.36
2018-07-27T12:07:09.061Z,1004.41
2018-07-27T12:08:09.028Z,1004.41